Time;durP1;ratioP1;P1;durP2;ratioP2;P2;SDS_P1;SDS_P2;PMS_P1;PMS_P2;Temp;Humidity;BMP_temperature;BMP_pressure;BME280_temperature;BME280_humidity;BME280_pressure;Samples;Min_cycle;Max_cycle;Signal;HPM_P1;HPM_P2
2022/03/18 00:02:06;;;;;;;4.43;4.03;;;12.20;99.90;;;;;;5068046;28;20519;-60
2022/03/18 00:04:37;;;;;;;7.03;4.27;;;12.20;99.90;;;;;;5064276;28;20522;-59
2022/03/18 00:07:10;;;;;;;5.20;3.60;;;12.20;99.90;;;;;;5065646;28;20459;-59
2022/03/18 00:09:43;;;;;;;4.97;4.00;;;12.10;99.90;;;;;;5068566;28;20450;-59
2022/03/18 00:12:14;;;;;;;6.10;3.80;;;12.10;99.90;;;;;;5062069;28;20470;-59
2022/03/18 00:14:46;;;;;;;5.27;4.00;;;12.20;99.90;;;;;;5063319;28;20460;-60
2022/03/18 00:17:16;;;;;;;3.90;3.43;;;12.20;99.90;;;;;;5058903;28;20488;-60
2022/03/18 00:19:47;;;;;;;7.07;4.13;;;12.10;99.90;;;;;;5059440;28;20444;-60
2022/03/18 00:22:21;;;;;;;4.83;3.80;;;12.10;99.90;;;;;;5061015;28;20453;-59
2022/03/18 00:24:51;;;;;;;5.67;3.93;;;12.00;99.90;;;;;;5062500;28;20460;-61
2022/03/18 00:27:23;;;;;;;7.37;3.97;;;11.90;99.90;;;;;;5060938;28;20463;-62
2022/03/18 00:29:54;;;;;;;5.73;3.40;;;11.90;99.90;;;;;;5062765;28;20539;-63
2022/03/18 00:32:25;;;;;;;4.07;3.20;;;11.90;99.90;;;;;;5061587;28;20451;-59
2022/03/18 00:34:56;;;;;;;4.20;3.37;;;11.90;99.90;;;;;;5062592;28;20444;-57
2022/03/18 00:37:28;;;;;;;6.77;4.17;;;11.80;99.90;;;;;;5057853;28;20504;-58
2022/03/18 00:39:59;;;;;;;3.40;2.90;;;11.70;99.90;;;;;;5061564;28;20539;-59
2022/03/18 00:42:31;;;;;;;4.90;3.30;;;11.60;99.90;;;;;;5063336;28;20462;-58
2022/03/18 00:45:04;;;;;;;4.80;3.50;;;11.60;99.90;;;;;;5061275;28;20448;-60
2022/03/18 00:53:12;;;;;;;4.37;3.50;;;11.60;99.90;;;;;;5061327;28;20448;-59
2022/03/18 00:55:43;;;;;;;6.80;3.80;;;11.60;99.90;;;;;;5060744;28;20449;-59
2022/03/18 00:58:14;;;;;;;7.70;3.90;;;11.40;99.90;;;;;;5060327;28;20545;-59
2022/03/18 01:00:45;;;;;;;4.17;3.73;;;11.50;99.90;;;;;;5061591;28;20448;-60
2022/03/18 01:03:16;;;;;;;5.33;3.50;;;11.50;99.90;;;;;;5060872;28;20543;-58
2022/03/18 01:05:47;;;;;;;5.83;3.90;;;11.60;99.90;;;;;;5060215;28;20459;-58
2022/03/18 01:08:20;;;;;;;4.87;3.70;;;11.60;99.90;;;;;;5060818;28;20448;-58
2022/03/18 01:10:51;;;;;;;6.93;3.70;;;11.60;99.90;;;;;;5060789;28;20452;-59
2022/03/18 01:13:21;;;;;;;6.20;3.67;;;11.60;99.90;;;;;;5060346;28;20779;-58
2022/03/18 01:15:52;;;;;;;4.73;3.90;;;11.60;99.90;;;;;;5060505;28;20460;-58
2022/03/18 01:18:23;;;;;;;5.47;3.77;;;11.60;99.90;;;;;;5060434;28;20506;-59
2022/03/18 01:20:55;;;;;;;4.00;3.60;;;11.60;99.90;;;;;;5060954;28;20554;-60
2022/03/18 01:23:27;;;;;;;5.60;4.07;;;11.60;99.90;;;;;;5061175;28;20440;-58
2022/03/18 01:25:58;;;;;;;5.90;3.43;;;11.60;99.90;;;;;;5061620;28;20455;-63
2022/03/18 01:28:30;;;;;;;5.37;4.13;;;11.60;99.90;;;;;;5066225;28;20458;-61
2022/03/18 01:31:00;;;;;;;5.60;3.60;;;11.70;99.90;;;;;;5061436;28;20448;-62
2022/03/18 01:33:33;;;;;;;8.33;5.93;;;11.70;99.90;;;;;;5064443;28;20531;-62
2022/03/18 01:36:04;;;;;;;10.63;6.40;;;11.60;99.90;;;;;;5064092;28;20466;-63
2022/03/18 01:38:40;;;;;;;6.43;5.10;;;11.40;99.90;;;;;;5057157;28;20492;-63
2022/03/18 01:41:11;;;;;;;6.07;5.47;;;11.40;99.90;;;;;;5064810;28;20794;-62
2022/03/18 01:43:44;;;;;;;6.80;5.60;;;11.30;99.90;;;;;;5062743;28;20460;-63
2022/03/18 01:46:16;;;;;;;7.43;5.20;;;11.20;99.90;;;;;;5066021;28;20456;-62
2022/03/18 01:48:48;;;;;;;7.43;5.13;;;11.30;99.90;;;;;;5064266;28;20462;-62
2022/03/18 01:51:19;;;;;;;9.20;6.00;;;11.10;99.90;;;;;;5069276;28;20436;-62
2022/03/18 01:54:44;;;;;;;7.40;5.80;;;11.10;99.90;;;;;;5069175;28;20547;-62
2022/03/18 01:56:43;;;;;;;6.17;5.60;;;11.10;99.90;;;;;;5066866;28;20731;-63
2022/03/18 01:59:15;;;;;;;6.13;5.47;;;11.00;99.90;;;;;;5071915;28;20484;-63
2022/03/18 02:01:46;;;;;;;6.27;5.60;;;11.00;99.90;;;;;;5063384;28;20541;-60
2022/03/18 02:04:17;;;;;;;6.70;5.37;;;10.90;99.90;;;;;;5062982;28;20477;-59
2022/03/18 02:06:49;;;;;;;9.40;5.87;;;10.90;99.90;;;;;;5063295;28;20449;-59
2022/03/18 02:09:22;;;;;;;6.83;5.90;;;10.80;99.90;;;;;;5063464;28;20615;-59
2022/03/18 02:11:53;;;;;;;7.47;6.43;;;10.80;99.90;;;;;;5075505;28;20452;-59
2022/03/18 02:14:32;;;;;;;6.37;5.70;;;10.90;99.90;;;;;;5065389;28;20467;-60
2022/03/18 02:17:05;;;;;;;6.77;5.17;;;10.90;99.90;;;;;;5062790;28;20472;-59
2022/03/18 02:19:36;;;;;;;6.17;5.10;;;10.80;99.90;;;;;;5071641;28;20496;-59
2022/03/18 02:22:12;;;;;;;9.17;5.90;;;10.70;99.90;;;;;;5078593;28;20466;-60
2022/03/18 02:24:46;;;;;;;6.97;5.30;;;10.70;99.90;;;;;;5063939;28;20447;-60
2022/03/18 02:27:17;;;;;;;7.47;6.23;;;10.80;99.90;;;;;;5071183;28;20444;-59
2022/03/18 02:29:48;;;;;;;5.83;5.23;;;10.80;99.90;;;;;;5064283;28;20530;-60
2022/03/18 02:32:19;;;;;;;7.97;6.10;;;10.80;99.90;;;;;;5063175;28;20448;-59
2022/03/18 02:34:50;;;;;;;7.83;5.80;;;10.80;99.90;;;;;;5063617;28;20470;-59
2022/03/18 02:37:21;;;;;;;8.50;6.07;;;10.80;99.90;;;;;;5063000;28;20449;-61
2022/03/18 02:39:53;;;;;;;10.90;6.07;;;10.70;99.90;;;;;;5063468;28;20936;-59
2022/03/18 02:42:24;;;;;;;9.37;6.00;;;10.70;99.90;;;;;;5064058;28;20452;-59
2022/03/18 02:44:55;;;;;;;9.33;6.37;;;10.70;99.90;;;;;;5063588;28;20456;-60
2022/03/18 02:47:26;;;;;;;7.87;6.43;;;10.70;99.90;;;;;;5071923;28;20457;-59
2022/03/18 02:49:57;;;;;;;6.43;5.83;;;10.70;99.90;;;;;;5062982;28;20556;-60
2022/03/18 02:52:29;;;;;;;9.73;6.73;;;10.70;99.90;;;;;;5062396;28;20429;-60
2022/03/18 02:55:01;;;;;;;6.43;5.83;;;10.80;99.90;;;;;;5064421;28;20468;-61
2022/03/18 02:57:35;;;;;;;7.93;6.20;;;10.70;99.90;;;;;;5060594;28;20453;-60
2022/03/18 03:00:07;;;;;;;8.73;6.40;;;10.70;99.90;;;;;;5062948;28;20514;-61
2022/03/18 03:02:38;;;;;;;10.93;5.93;;;10.70;99.90;;;;;;5059130;28;20445;-61
2022/03/18 03:08:01;;;;;;;11.20;6.20;;;10.70;99.90;;;;;;5063699;28;20530;-61
2022/03/18 03:10:36;;;;;;;7.40;6.77;;;10.70;99.90;;;;;;5069480;28;20474;-62
2022/03/18 03:13:10;;;;;;;6.13;5.53;;;10.70;99.90;;;;;;5069334;28;20543;-60
2022/03/18 03:15:41;;;;;;;7.37;6.60;;;10.70;99.90;;;;;;5053388;28;20554;-61
2022/03/18 03:18:12;;;;;;;9.00;6.80;;;10.70;99.90;;;;;;5061894;28;20472;-60
2022/03/18 03:20:43;;;;;;;11.57;7.10;;;10.70;99.90;;;;;;5062731;28;20484;-60
2022/03/18 03:23:15;;;;;;;7.50;6.80;;;10.70;99.90;;;;;;5062313;28;20477;-61
2022/03/18 03:25:48;;;;;;;7.07;6.20;;;10.80;99.90;;;;;;5063805;28;20487;-61
2022/03/18 03:28:19;;;;;;;6.87;6.17;;;10.70;99.90;;;;;;5067600;28;20439;-61
2022/03/18 03:30:51;;;;;;;8.80;7.23;;;10.60;99.90;;;;;;5063630;28;20495;-60
2022/03/18 03:33:22;;;;;;;8.20;6.40;;;10.50;99.90;;;;;;5062881;28;20464;-59
2022/03/18 03:35:56;;;;;;;12.43;8.10;;;10.50;99.90;;;;;;5067518;28;20635;-60
2022/03/18 03:38:27;;;;;;;8.17;6.30;;;10.50;99.90;;;;;;5062383;28;20456;-60
2022/03/18 03:41:02;;;;;;;10.67;7.90;;;10.40;99.90;;;;;;5063762;28;20433;-61
2022/03/18 03:43:33;;;;;;;9.30;7.53;;;10.60;99.90;;;;;;5064522;28;20463;-61
2022/03/18 03:46:06;;;;;;;10.10;7.47;;;10.60;99.90;;;;;;5066145;28;20460;-61
2022/03/18 03:48:39;;;;;;;8.60;7.13;;;10.50;99.90;;;;;;5061685;28;20458;-61
2022/03/18 03:51:10;;;;;;;8.00;7.17;;;10.50;99.90;;;;;;5063367;28;20460;-61
2022/03/18 03:53:41;;;;;;;9.67;7.97;;;10.40;99.90;;;;;;5062953;28;20456;-61
2022/03/18 03:56:14;;;;;;;11.43;7.30;;;10.40;99.90;;;;;;5064998;28;20515;-61
2022/03/18 03:58:45;;;;;;;12.90;8.17;;;10.30;99.90;;;;;;5060906;28;20957;-61
2022/03/18 04:01:16;;;;;;;10.20;8.57;;;10.30;99.90;;;;;;5068621;28;20520;-61
2022/03/18 04:03:47;;;;;;;8.63;7.73;;;10.20;99.90;;;;;;5064290;28;20475;-61
2022/03/18 04:06:18;;;;;;;9.17;8.23;;;10.20;99.90;;;;;;5061366;28;20507;-61
2022/03/18 04:08:49;;;;;;;9.53;8.00;;;10.20;99.90;;;;;;5062365;28;20835;-61
2022/03/18 04:11:21;;;;;;;8.87;6.87;;;10.20;99.90;;;;;;5064581;28;20456;-61
2022/03/18 04:13:52;;;;;;;8.30;6.93;;;10.20;99.90;;;;;;5071322;28;20451;-61
2022/03/18 04:16:23;;;;;;;9.40;7.50;;;10.20;99.90;;;;;;5063803;28;20514;-61
2022/03/18 04:18:55;;;;;;;8.43;7.43;;;10.20;99.90;;;;;;5060135;28;20484;-61
2022/03/18 04:21:28;;;;;;;10.10;6.80;;;10.20;99.90;;;;;;5061942;28;20624;-60
2022/03/18 04:24:00;;;;;;;8.00;7.20;;;10.20;99.90;;;;;;5066684;28;20980;-60
2022/03/18 04:27:03;;;;;;;8.00;7.23;;;10.20;99.90;;;;;;5063628;28;20474;-61
2022/03/18 04:29:34;;;;;;;10.13;8.10;;;10.20;99.90;;;;;;5063924;28;20522;-61
2022/03/18 04:32:06;;;;;;;8.47;7.70;;;10.10;99.90;;;;;;5065056;28;20573;-60
2022/03/18 04:34:37;;;;;;;7.70;6.90;;;10.10;99.90;;;;;;5061633;28;20532;-60
2022/03/18 04:37:08;;;;;;;8.60;7.20;;;10.10;99.90;;;;;;5059478;28;20452;-60
2022/03/18 04:39:38;;;;;;;8.40;7.30;;;10.10;99.90;;;;;;5061647;28;20491;-60
2022/03/18 04:42:17;;;;;;;8.60;7.80;;;10.00;99.90;;;;;;5060576;28;20461;-60
2022/03/18 04:44:51;;;;;;;9.30;8.20;;;10.00;99.90;;;;;;5054770;28;20785;-60
2022/03/18 04:47:23;;;;;;;11.07;7.93;;;10.10;99.90;;;;;;5061832;28;20446;-60
2022/03/18 04:49:54;;;;;;;12.50;9.57;;;10.10;99.90;;;;;;5061650;28;20448;-60
2022/03/18 04:52:25;;;;;;;10.97;8.40;;;10.10;99.90;;;;;;5061891;28;20449;-60
2022/03/18 04:54:56;;;;;;;9.30;8.40;;;10.00;99.90;;;;;;5062846;28;20462;-60
2022/03/18 04:57:31;;;;;;;8.07;7.20;;;10.10;99.90;;;;;;5059469;28;20221;-60
2022/03/18 05:00:04;;;;;;;11.57;9.00;;;10.00;99.90;;;;;;5050869;28;20563;-60
2022/03/18 05:02:37;;;;;;;7.73;7.00;;;10.00;99.90;;;;;;5049106;28;20449;-61
2022/03/18 05:05:10;;;;;;;8.73;7.10;;;9.90;99.90;;;;;;5062857;28;20483;-60
2022/03/18 05:07:41;;;;;;;7.97;7.27;;;9.90;99.90;;;;;;5070939;28;20469;-60
2022/03/18 05:10:12;;;;;;;8.03;6.77;;;9.90;99.90;;;;;;5064545;28;20451;-61
2022/03/18 05:12:45;;;;;;;8.97;6.80;;;9.90;99.90;;;;;;5070940;28;20460;-61
2022/03/18 05:15:16;;;;;;;10.93;6.90;;;9.90;99.90;;;;;;5075759;28;20439;-60
2022/03/18 05:17:52;;;;;;;10.53;7.90;;;9.90;99.90;;;;;;5072370;28;20568;-60
2022/03/18 05:20:24;;;;;;;11.13;7.50;;;10.00;99.90;;;;;;5065380;28;20990;-61
2022/03/18 05:22:55;;;;;;;9.30;6.80;;;9.90;99.90;;;;;;5065716;28;20539;-61
2022/03/18 05:25:27;;;;;;;5.30;4.80;;;10.00;99.90;;;;;;5049102;28;20520;-62
2022/03/18 05:28:00;;;;;;;6.20;5.40;;;10.10;99.90;;;;;;5063516;28;20823;-61
2022/03/18 05:30:31;;;;;;;5.27;4.60;;;10.10;99.90;;;;;;5047857;28;20456;-62
2022/03/18 05:33:02;;;;;;;3.37;3.03;;;10.10;99.90;;;;;;5054087;28;20453;-61
2022/03/18 05:35:33;;;;;;;3.80;2.40;;;10.20;99.90;;;;;;5061525;28;20449;-61
2022/03/18 05:38:04;;;;;;;2.70;2.50;;;10.30;99.90;;;;;;5059507;28;20488;-62
2022/03/18 05:40:36;;;;;;;4.43;2.70;;;10.40;99.90;;;;;;5061191;28;20483;-61
2022/03/18 05:43:08;;;;;;;5.03;2.40;;;10.40;99.90;;;;;;5063123;28;20472;-61
2022/03/18 05:45:39;;;;;;;2.30;2.10;;;10.50;99.90;;;;;;5056851;28;20543;-61
2022/03/18 05:48:11;;;;;;;2.23;1.50;;;10.50;99.90;;;;;;5046165;28;20456;-62
2022/03/18 05:50:42;;;;;;;3.33;2.40;;;10.60;99.90;;;;;;5057453;28;20513;-61
2022/03/18 05:53:13;;;;;;;4.00;2.60;;;10.50;99.90;;;;;;5061260;28;20452;-62
2022/03/18 05:58:34;;;;;;;3.70;2.00;;;10.50;99.90;;;;;;5063106;28;20453;-61
2022/03/18 06:01:06;;;;;;;6.47;2.13;;;10.50;99.90;;;;;;5065325;28;20476;-62
2022/03/18 06:03:38;;;;;;;3.43;1.50;;;10.50;99.90;;;;;;5067520;28;20587;-61
2022/03/18 06:06:10;;;;;;;4.70;2.00;;;10.50;99.90;;;;;;5051483;28;20541;-61
2022/03/18 06:11:51;;;;;;;4.77;1.80;;;10.50;99.90;;;;;;5053183;28;20516;-61
2022/03/18 06:14:27;;;;;;;2.10;1.90;;;10.50;99.90;;;;;;5061402;28;20443;-62
2022/03/18 06:17:00;;;;;;;4.43;1.90;;;10.60;99.90;;;;;;5066871;28;20507;-61
2022/03/18 06:19:33;;;;;;;2.70;1.57;;;10.50;99.90;;;;;;5061127;28;20561;-61
2022/03/18 06:22:05;;;;;;;4.40;2.00;;;10.50;99.90;;;;;;5064077;28;20499;-61
2022/03/18 06:24:36;;;;;;;2.00;1.80;;;10.50;99.90;;;;;;5068953;28;20457;-61
2022/03/18 06:27:08;;;;;;;3.83;2.00;;;10.60;99.90;;;;;;5066831;28;20452;-60
2022/03/18 06:29:44;;;;;;;2.10;1.90;;;10.70;99.90;;;;;;5066119;28;20475;-61
2022/03/18 06:32:15;;;;;;;2.77;1.70;;;10.70;99.90;;;;;;5063734;28;20547;-61
2022/03/18 06:34:46;;;;;;;2.93;1.93;;;10.60;99.90;;;;;;5064161;28;20449;-62
2022/03/18 06:37:17;;;;;;;2.50;1.73;;;10.50;99.90;;;;;;5060652;28;20481;-61
2022/03/18 06:39:48;;;;;;;2.43;1.90;;;10.50;99.90;;;;;;5064527;28;20528;-61
2022/03/18 06:42:20;;;;;;;2.20;1.93;;;10.50;99.90;;;;;;5062641;28;20551;-61
2022/03/18 06:44:54;;;;;;;3.80;1.80;;;10.50;99.90;;;;;;5063620;28;20463;-61
2022/03/18 06:47:25;;;;;;;3.27;1.83;;;10.60;99.90;;;;;;5062611;28;20468;-62
2022/03/18 06:49:56;;;;;;;3.60;1.80;;;10.60;99.90;;;;;;5062444;28;20444;-62
2022/03/18 06:52:27;;;;;;;2.43;2.20;;;10.60;99.90;;;;;;5064366;28;20642;-61
2022/03/18 06:55:01;;;;;;;6.10;2.87;;;10.60;99.90;;;;;;5058593;28;20463;-62
2022/03/18 06:57:32;;;;;;;2.93;2.10;;;10.70;99.90;;;;;;5065809;28;20452;-62
2022/03/18 07:00:05;;;;;;;3.93;2.30;;;10.70;99.90;;;;;;5060387;28;20440;-61
2022/03/18 07:02:37;;;;;;;3.33;2.40;;;10.80;99.90;;;;;;5062743;28;20834;-61
2022/03/18 07:05:09;;;;;;;2.10;2.00;;;10.70;99.90;;;;;;5063453;28;20453;-61
2022/03/18 07:07:40;;;;;;;2.83;2.10;;;10.70;99.90;;;;;;5062898;28;20476;-61
2022/03/18 07:10:14;;;;;;;3.30;1.73;;;10.60;99.90;;;;;;5051670;28;20453;-61
2022/03/18 07:12:45;;;;;;;3.10;2.20;;;10.60;99.90;;;;;;5061874;28;20456;-62
2022/03/18 07:15:17;;;;;;;2.57;2.00;;;10.60;99.90;;;;;;5062976;28;20464;-62
2022/03/18 07:17:58;;;;;;;5.47;1.97;;;10.60;99.90;;;;;;5062373;28;20484;-61
2022/03/18 07:20:30;;;;;;;2.90;2.20;;;10.60;99.90;;;;;;5062683;28;20624;-62
2022/03/18 07:23:06;;;;;;;3.73;2.10;;;10.50;99.90;;;;;;5062869;28;20446;-61
2022/03/18 07:25:39;;;;;;;2.80;2.07;;;10.40;99.90;;;;;;5063008;28;20448;-61
2022/03/18 07:28:12;;;;;;;3.23;2.80;;;10.40;99.90;;;;;;5060960;28;20460;-61
2022/03/18 07:30:48;;;;;;;3.87;2.50;;;10.40;99.90;;;;;;5062407;28;20452;-62
2022/03/18 07:33:18;;;;;;;3.23;2.77;;;10.50;99.90;;;;;;5062609;28;20816;-62
2022/03/18 07:35:49;;;;;;;4.37;3.20;;;10.40;99.90;;;;;;5063119;28;20459;-62
2022/03/18 07:38:20;;;;;;;5.93;4.47;;;10.40;99.90;;;;;;5063059;28;20444;-62
2022/03/18 07:40:55;;;;;;;4.50;3.60;;;10.40;99.90;;;;;;5062695;28;20443;-62
2022/03/18 07:43:26;;;;;;;6.37;5.07;;;10.40;99.90;;;;;;5061982;28;20460;-62
2022/03/18 07:45:58;;;;;;;4.47;4.10;;;10.50;99.90;;;;;;5063065;28;20460;-62
2022/03/18 07:48:30;;;;;;;4.80;4.30;;;10.50;99.90;;;;;;5062177;28;20456;-62
2022/03/18 07:51:01;;;;;;;3.20;2.97;;;10.40;99.90;;;;;;5062707;28;20444;-62
2022/03/18 07:53:31;;;;;;;6.03;3.27;;;10.30;99.90;;;;;;5062970;28;20634;-62
2022/03/18 07:56:02;;;;;;;3.20;2.67;;;10.30;99.90;;;;;;5077529;28;20455;-62
2022/03/18 07:58:34;;;;;;;3.20;2.70;;;10.40;99.90;;;;;;5063223;28;20603;-62
2022/03/18 08:01:07;;;;;;;3.60;3.17;;;10.40;99.90;;;;;;5062145;28;20487;-62
2022/03/18 08:03:38;;;;;;;4.77;4.27;;;10.40;99.90;;;;;;5062331;28;20675;-62
2022/03/18 08:06:09;;;;;;;4.23;3.90;;;10.40;99.90;;;;;;5062657;28;20494;-62
2022/03/18 08:08:40;;;;;;;4.93;4.53;;;10.40;99.90;;;;;;5062335;28;20444;-62
2022/03/18 08:11:11;;;;;;;10.13;6.47;;;10.40;99.90;;;;;;5061990;28;20480;-62
2022/03/18 08:13:52;;;;;;;7.53;6.83;;;10.40;99.90;;;;;;5061113;28;20452;-62
2022/03/18 08:16:26;;;;;;;9.37;5.47;;;10.40;99.90;;;;;;5062253;28;20456;-62
2022/03/18 08:18:57;;;;;;;7.20;5.43;;;10.40;99.90;;;;;;5047989;28;20588;-62
2022/03/18 08:21:32;;;;;;;5.40;4.67;;;10.40;99.90;;;;;;5062185;28;20534;-62
2022/03/18 08:24:03;;;;;;;4.40;4.00;;;10.40;99.90;;;;;;5070005;28;20938;-62
2022/03/18 08:26:37;;;;;;;3.90;3.50;;;10.30;99.90;;;;;;5073826;28;20461;-62
2022/03/18 08:29:09;;;;;;;4.57;3.43;;;10.30;99.90;;;;;;5063243;28;20482;-62
2022/03/18 08:31:41;;;;;;;2.97;2.40;;;10.30;99.90;;;;;;5068396;28;20471;-62
2022/03/18 08:34:12;;;;;;;3.80;2.53;;;10.30;99.90;;;;;;5062151;28;20471;-62
2022/03/18 08:36:44;;;;;;;2.53;2.27;;;10.30;99.90;;;;;;5069119;28;20444;-61
2022/03/18 08:39:14;;;;;;;2.43;2.23;;;10.20;99.90;;;;;;5061271;28;20532;-60
2022/03/18 08:41:45;;;;;;;3.13;2.37;;;10.30;99.90;;;;;;5066007;28;20488;-61
2022/03/18 08:44:19;;;;;;;2.60;2.40;;;10.20;99.90;;;;;;5068556;28;20452;-61
2022/03/18 08:46:52;;;;;;;4.07;2.50;;;10.30;99.90;;;;;;5066142;28;20451;-61
2022/03/18 08:49:23;;;;;;;4.27;2.40;;;10.30;99.90;;;;;;5066087;28;20802;-62
2022/03/18 08:51:53;;;;;;;3.03;2.40;;;10.30;99.90;;;;;;5065955;28;20463;-62
2022/03/18 08:54:24;;;;;;;4.27;3.23;;;10.20;99.90;;;;;;5079349;28;20447;-61
2022/03/18 08:56:55;;;;;;;3.13;2.30;;;10.20;99.90;;;;;;5070745;28;20463;-62
2022/03/18 08:59:29;;;;;;;5.77;2.50;;;10.20;99.90;;;;;;5064733;28;20464;-61
2022/03/18 09:02:01;;;;;;;3.63;2.57;;;10.10;99.90;;;;;;5067031;28;20510;-61
2022/03/18 09:04:32;;;;;;;3.03;2.47;;;10.20;99.90;;;;;;5071563;28;20452;-61
2022/03/18 09:07:03;;;;;;;2.53;2.30;;;10.30;99.90;;;;;;5069882;28;20446;-61
2022/03/18 09:09:34;;;;;;;4.23;3.20;;;10.30;99.90;;;;;;5073473;28;20443;-61
2022/03/18 09:12:05;;;;;;;3.20;2.20;;;10.40;99.90;;;;;;5072851;28;20451;-61
2022/03/18 09:14:36;;;;;;;3.40;2.30;;;10.40;99.90;;;;;;5064808;28;20448;-61
2022/03/18 09:17:08;;;;;;;3.40;2.23;;;10.40;99.90;;;;;;5064663;28;20484;-62
2022/03/18 09:19:41;;;;;;;3.07;2.47;;;10.40;99.90;;;;;;5065643;28;20474;-62
2022/03/18 09:22:13;;;;;;;2.60;2.37;;;10.40;99.90;;;;;;5064753;28;20488;-62
2022/03/18 09:24:46;;;;;;;3.50;2.70;;;10.40;99.90;;;;;;5065337;28;20464;-62
2022/03/18 09:27:18;;;;;;;3.60;2.10;;;10.30;99.90;;;;;;5062938;28;20455;-62
2022/03/18 09:29:49;;;;;;;4.00;2.30;;;10.40;99.90;;;;;;5065229;28;20474;-61
2022/03/18 09:32:21;;;;;;;4.20;2.27;;;10.30;99.90;;;;;;5063453;28;20448;-62
2022/03/18 09:34:55;;;;;;;3.90;3.10;;;10.30;99.90;;;;;;5064999;28;20931;-61
2022/03/18 09:37:31;;;;;;;4.13;2.30;;;10.20;99.90;;;;;;5059735;28;21786;-62
2022/03/18 09:40:04;;;;;;;3.80;3.03;;;10.30;99.90;;;;;;5069310;28;20436;-61
2022/03/18 09:42:58;;;;;;;3.60;2.80;;;10.40;99.90;;;;;;5064356;28;20483;-61
2022/03/18 09:45:31;;;;;;;3.80;2.30;;;10.50;99.90;;;;;;5064631;28;21058;-61
2022/03/18 09:48:06;;;;;;;3.53;2.33;;;10.40;99.90;;;;;;5064204;28;20528;-62
2022/03/18 09:50:37;;;;;;;5.60;3.43;;;10.40;99.90;;;;;;5064872;28;20451;-61
2022/03/18 09:53:09;;;;;;;6.20;3.70;;;10.30;99.90;;;;;;5063124;28;20467;-62
2022/03/18 09:55:40;;;;;;;5.77;4.37;;;10.30;99.90;;;;;;5064167;28;20835;-61
2022/03/18 09:58:13;;;;;;;4.10;3.50;;;10.30;99.90;;;;;;5063846;28;20472;-61
2022/03/18 10:00:44;;;;;;;5.73;3.90;;;10.30;99.90;;;;;;5064122;28;20460;-61
2022/03/18 10:03:18;;;;;;;2.80;2.60;;;10.30;99.90;;;;;;5063540;28;20494;-61
2022/03/18 10:05:52;;;;;;;2.80;2.20;;;10.30;99.90;;;;;;5063907;28;20558;-61
2022/03/18 10:08:22;;;;;;;4.10;2.13;;;10.30;99.90;;;;;;5064085;28;20546;-62
2022/03/18 10:10:53;;;;;;;3.60;3.30;;;10.30;99.90;;;;;;5064596;28;20444;-62
2022/03/18 10:13:24;;;;;;;3.90;2.20;;;10.40;99.90;;;;;;5063021;28;20452;-61
2022/03/18 10:15:55;;;;;;;5.50;3.07;;;10.40;99.90;;;;;;5048445;28;20453;-61
2022/03/18 10:18:27;;;;;;;3.00;2.07;;;10.30;99.90;;;;;;5056453;28;20472;-61
2022/03/18 10:21:10;;;;;;;4.50;2.20;;;10.30;99.90;;;;;;5063784;28;21018;-61
2022/03/18 10:23:41;;;;;;;3.80;3.27;;;10.30;99.90;;;;;;5063648;28;20545;-61
2022/03/18 10:26:15;;;;;;;3.10;2.20;;;10.30;99.90;;;;;;5063852;28;20436;-61
2022/03/18 10:28:47;;;;;;;2.40;2.10;;;10.40;99.90;;;;;;5062874;28;20767;-61
2022/03/18 10:31:19;;;;;;;3.30;2.63;;;10.30;99.90;;;;;;5063466;28;20468;-61
2022/03/18 10:39:34;;;;;;;7.00;2.30;;;10.20;99.90;;;;;;5062748;28;20942;-61
2022/03/18 10:42:09;;;;;;;4.23;2.60;;;10.30;99.90;;;;;;5063823;28;20456;-61
2022/03/18 10:44:49;;;;;;;3.10;1.90;;;10.20;99.90;;;;;;5072531;28;20448;-61
2022/03/18 10:47:27;;;;;;;2.80;2.53;;;10.20;99.90;;;;;;5066151;28;20432;-62
2022/03/18 10:50:29;;;;;;;3.70;2.30;;;10.20;99.90;;;;;;5068651;28;20470;-61
2022/03/18 10:53:05;;;;;;;4.37;2.13;;;10.30;99.90;;;;;;5060343;28;20471;-61
2022/03/18 10:55:38;;;;;;;4.13;2.20;;;10.30;99.90;;;;;;5054542;28;20529;-61
2022/03/18 10:58:11;;;;;;;3.83;3.43;;;10.20;99.90;;;;;;5064954;28;20449;-61
2022/03/18 11:00:43;;;;;;;4.00;2.30;;;10.20;99.90;;;;;;5063027;28;20461;-61
2022/03/18 11:03:15;;;;;;;2.60;2.03;;;10.20;99.90;;;;;;5062204;28;20476;-61
2022/03/18 11:05:51;;;;;;;3.50;2.10;;;10.20;99.90;;;;;;5063177;28;20903;-61
2022/03/18 11:08:23;;;;;;;2.83;2.30;;;10.20;99.90;;;;;;5062919;28;20452;-61
2022/03/18 11:11:18;;;;;;;3.83;2.83;;;10.20;99.90;;;;;;5062861;28;20456;-61
2022/03/18 11:13:53;;;;;;;4.80;2.80;;;10.20;99.90;;;;;;5061171;28;20467;-61
2022/03/18 11:16:25;;;;;;;2.53;2.33;;;10.20;99.90;;;;;;5062816;28;20458;-61
2022/03/18 11:18:58;;;;;;;4.50;2.60;;;10.20;99.90;;;;;;5062547;28;20452;-61
2022/03/18 11:21:38;;;;;;;2.30;2.03;;;10.20;99.90;;;;;;5063024;28;20465;-61
2022/03/18 11:24:11;;;;;;;3.47;2.20;;;10.20;99.90;;;;;;5061947;28;20955;-61
2022/03/18 11:26:47;;;;;;;6.87;3.13;;;10.10;99.90;;;;;;5063154;28;20433;-61
2022/03/18 11:29:23;;;;;;;6.43;2.63;;;10.20;99.90;;;;;;5061974;28;20503;-61
2022/03/18 11:32:24;;;;;;;4.60;2.70;;;10.20;99.90;;;;;;5062357;28;20924;-61
2022/03/18 11:35:00;;;;;;;6.07;2.70;;;10.10;99.90;;;;;;5057225;28;20451;-61
2022/03/18 11:37:33;;;;;;;3.40;2.17;;;10.10;99.90;;;;;;5057456;28;20483;-61
2022/03/18 11:40:30;;;;;;;3.33;2.17;;;10.20;99.90;;;;;;5059212;28;20456;-61
2022/03/18 11:43:31;;;;;;;2.37;2.17;;;10.10;99.90;;;;;;5019276;28;20469;-61
2022/03/18 11:46:27;;;;;;;4.10;2.63;;;10.00;99.90;;;;;;5020410;28;20454;-61
2022/03/18 11:48:59;;;;;;;3.30;2.40;;;9.90;99.90;;;;;;5019952;28;20462;-61
2022/03/18 11:51:34;;;;;;;3.27;2.23;;;9.90;99.90;;;;;;5020602;28;20751;-61
2022/03/18 11:54:10;;;;;;;4.63;2.63;;;9.80;99.90;;;;;;5020294;28;20457;-60
2022/03/18 11:56:46;;;;;;;4.17;2.43;;;9.90;99.90;;;;;;5020136;28;20553;-61
2022/03/18 11:59:53;;;;;;;3.67;2.73;;;9.80;99.90;;;;;;5018781;28;20454;-61
2022/03/18 12:02:33;;;;;;;3.10;2.33;;;9.90;99.90;;;;;;4980069;28;20582;-61
2022/03/18 12:05:06;;;;;;;3.23;2.40;;;9.90;99.90;;;;;;4968047;28;21031;-61
2022/03/18 12:07:49;;;;;;;3.00;2.53;;;9.90;99.90;;;;;;4980378;28;20490;-61
2022/03/18 12:10:35;;;;;;;4.03;2.37;;;9.80;99.90;;;;;;4980674;28;20495;-61
2022/03/18 12:13:06;;;;;;;3.13;2.53;;;9.90;99.90;;;;;;4968215;28;20518;-61
2022/03/18 12:15:40;;;;;;;3.93;2.37;;;9.90;99.90;;;;;;4980359;28;20448;-61
2022/03/18 12:18:10;;;;;;;2.83;2.27;;;10.00;99.90;;;;;;4994053;28;20557;-61
2022/03/18 12:21:01;;;;;;;2.70;2.00;;;9.90;99.90;;;;;;5039151;28;20445;-61
2022/03/18 12:23:36;;;;;;;3.90;3.50;;;9.90;99.90;;;;;;5039477;28;20626;-61
2022/03/18 12:26:09;;;;;;;4.47;2.67;;;10.00;99.90;;;;;;5039105;28;20445;-61
2022/03/18 12:28:49;;;;;;;4.97;3.27;;;10.00;99.90;;;;;;5036680;28;20468;-61
2022/03/18 12:31:21;;;;;;;3.97;2.53;;;10.00;99.90;;;;;;5035319;28;20496;-61
2022/03/18 12:33:58;;;;;;;3.30;2.63;;;10.00;99.90;;;;;;5054924;28;20512;-62
2022/03/18 12:36:30;;;;;;;3.70;2.70;;;10.00;99.90;;;;;;5061906;28;20436;-61
2022/03/18 12:39:11;;;;;;;2.60;2.40;;;10.10;99.90;;;;;;5059726;28;20904;-61
2022/03/18 12:41:45;;;;;;;2.87;2.63;;;10.10;99.90;;;;;;5061836;28;20456;-61
2022/03/18 12:44:31;;;;;;;3.83;2.60;;;10.00;99.90;;;;;;5045371;28;20587;-60
2022/03/18 12:47:05;;;;;;;5.77;2.83;;;10.00;99.90;;;;;;5061615;28;20452;-61
2022/03/18 12:49:38;;;;;;;4.17;3.03;;;10.10;99.90;;;;;;5061363;28;20463;-60
2022/03/18 12:52:11;;;;;;;3.13;2.90;;;10.10;99.90;;;;;;5061382;28;20527;-61
2022/03/18 12:55:05;;;;;;;4.13;2.90;;;10.10;99.90;;;;;;5061875;28;20490;-61
2022/03/18 12:57:41;;;;;;;3.80;3.50;;;10.10;99.90;;;;;;5060818;28;20456;-61
2022/03/18 13:00:14;;;;;;;3.90;2.97;;;10.10;99.90;;;;;;5061080;28;20440;-61
2022/03/18 13:03:06;;;;;;;4.53;2.70;;;10.10;99.90;;;;;;5061077;28;20535;-61
2022/03/18 13:05:38;;;;;;;3.10;2.57;;;10.10;99.90;;;;;;5061166;28;20546;-61
2022/03/18 13:08:10;;;;;;;3.40;3.10;;;10.10;99.90;;;;;;5061276;28;20461;-61
2022/03/18 13:10:41;;;;;;;4.13;3.03;;;10.10;99.90;;;;;;5063840;28;20439;-61
2022/03/18 13:13:16;;;;;;;4.43;3.30;;;10.10;99.90;;;;;;5060998;28;20432;-61
2022/03/18 13:15:58;;;;;;;4.63;3.10;;;10.10;99.90;;;;;;5060784;28;20460;-61
2022/03/18 13:18:31;;;;;;;3.00;2.60;;;10.10;99.90;;;;;;5056564;28;20480;-61
2022/03/18 13:21:03;;;;;;;5.00;2.60;;;10.10;99.90;;;;;;5061300;28;20462;-61
2022/03/18 13:23:36;;;;;;;6.80;2.90;;;10.10;99.90;;;;;;5060987;28;20452;-61
2022/03/18 13:26:11;;;;;;;4.53;3.00;;;10.20;99.90;;;;;;5060897;28;20460;-61
2022/03/18 13:28:44;;;;;;;4.80;2.90;;;10.30;99.90;;;;;;5057460;28;20606;-62
2022/03/18 13:34:03;;;;;;;4.70;3.07;;;10.30;99.90;;;;;;5059055;28;20448;-61
2022/03/18 13:36:37;;;;;;;5.40;2.90;;;10.30;99.90;;;;;;5063252;28;20563;-61
2022/03/18 13:39:09;;;;;;;7.00;2.70;;;10.30;99.90;;;;;;5063655;28;20454;-61
2022/03/18 13:41:48;;;;;;;3.80;2.80;;;10.30;99.90;;;;;;5064561;28;20463;-61
2022/03/18 13:44:23;;;;;;;3.90;3.37;;;10.40;99.90;;;;;;5063474;28;20528;-61